This is the latest recevied weather packets stored in our database for station/object AK4NG. If no packets are shown the sender has not sent any weather packets the latest 10 day(s).
| Time | Temp. | Humidity | Pressure | Rain* | Wind** | Luminosity | Snow |
|---|---|---|---|---|---|---|---|
| 1777660543 | 16.11° C | 86% | 1015.3 hPa | 0 mm | - | 291 W/m² | - |
| 1777660239 | 16.11° C | 87% | 1015.3 hPa | 0 mm | - | 313 W/m² | - |
| 1777659936 | 16.11° C | 84% | 1015.1 hPa | 0 mm | - | 259 W/m² | - |
| 1777659633 | 16.11° C | 85% | 1015.6 hPa | 0 mm | - | 329 W/m² | - |
| 1777659331 | 16.11° C | 87% | 1015.7 hPa | 0 mm | - | 419 W/m² | - |
| 1777659027 | 15.56° C | 89% | 1016 hPa | 0 mm | - | 314 W/m² | - |
| 1777658725 | 15° C | 93% | 1015.9 hPa | 0 mm | - | 371 W/m² | - |
| 1777658421 | 15° C | 90% | 1016.1 hPa | 0 mm | - | 254 W/m² | - |
| 1777658118 | 15.56° C | 89% | 1016.6 hPa | 0 mm | - | 89 W/m² | - |
| 1777657815 | 15.56° C | 85% | 1016.3 hPa | 1.78 mm | - | 97 W/m² | - |
| 1777657512 | 15.56° C | 88% | 1016 hPa | 1.78 mm | - | 245 W/m² | - |
| 1777657209 | 15.56° C | 88% | 1016 hPa | 0 mm | - | 362 W/m² | - |
| 1777656907 | 15.56° C | 92% | 1015.6 hPa | 1.27 mm | - | 435 W/m² | - |
| 1777656603 | 15° C | 87% | 1015.9 hPa | 1.27 mm | - | 203 W/m² | - |
| 1777656298 | 15° C | 89% | 1015.8 hPa | 0 mm | - | 209 W/m² | - |
| 1777655994 | 15° C | 90% | 1016.2 hPa | 1.78 mm | - | 161 W/m² | - |
| 1777655690 | 15° C | 91% | 1016 hPa | 1.78 mm | - | 150 W/m² | - |
| 1777655387 | 15° C | 91% | 1016.1 hPa | 0 mm | - | 121 W/m² | - |
| 1777655083 | 15° C | 91% | 1016.1 hPa | 0 mm | - | 115 W/m² | - |
| 1777654782 | 15° C | 89% | 1015.9 hPa | 0 mm | - | 106 W/m² | - |
| 1777654479 | 15.56° C | 87% | 1016.1 hPa | 0 mm | - | 110 W/m² | - |
| 1777654176 | 15.56° C | 87% | 1016 hPa | 0 mm | - | 102 W/m² | - |
| 1777653874 | 15° C | 87% | 1015.9 hPa | 0 mm | - | 142 W/m² | - |
| 1777653571 | 15° C | 88% | 1015.8 hPa | 0 mm | - | 169 W/m² | - |
| 1777653266 | 15° C | 87% | 1015.9 hPa | 0 mm | - | 176 W/m² | - |
* Rain latest hour (hover to see other rain measurements)
** Current wind speed in m/s (hover to see current wind gust speed)